This is the latest recevied weather packets stored in our database for station/object KC1IUC-15. If no packets are shown the sender has not sent any weather packets the latest 10 day(s).
| Time | Temp. | Humidity | Pressure | Rain* | Wind** | Luminosity | Snow |
|---|---|---|---|---|---|---|---|
| 1777837203 | 12.22° C | 32% | 1008.9 hPa | 0 mm | - | 191 W/m² | - |
| 1777836903 | 12.78° C | 31% | 1008.9 hPa | 0 mm | - | 179 W/m² | - |
| 1777836604 | 13.33° C | 31% | 1008.9 hPa | 0 mm | - | 174 W/m² | - |
| 1777836303 | 12.22° C | 33% | 1008.9 hPa | 0 mm | - | 463 W/m² | - |
| 1777836003 | 12.78° C | 30% | 1008.9 hPa | 0 mm | - | 224 W/m² | - |
| 1777835703 | 12.78° C | 31% | 1008.9 hPa | 0 mm | - | 195 W/m² | - |
| 1777835403 | 12.78° C | 31% | 1008.9 hPa | 0 mm | - | 222 W/m² | - |
| 1777835103 | 12.78° C | 31% | 1008.9 hPa | 0 mm | - | 596 W/m² | - |
| 1777834803 | 13.33° C | 31% | 1008.9 hPa | 0 mm | - | 231 W/m² | - |
| 1777834503 | 13.33° C | 31% | 1008.6 hPa | 0 mm | - | 669 W/m² | - |
| 1777834203 | 12.78° C | 31% | 1008.9 hPa | 0 mm | - | 834 W/m² | - |
| 1777833903 | 12.78° C | 32% | 1008.9 hPa | 0 mm | - | 368 W/m² | - |
| 1777833603 | 12.22° C | 31% | 1008.6 hPa | 0 mm | - | 219 W/m² | - |
| 1777833303 | 12.22° C | 30% | 1008.9 hPa | 0 mm | - | 254 W/m² | - |
| 1777833003 | 12.78° C | 31% | 1008.9 hPa | 0 mm | - | 227 W/m² | - |
| 1777832703 | 12.78° C | 30% | 1008.9 hPa | 0 mm | - | 282 W/m² | - |
| 1777832403 | 12.78° C | 30% | 1008.9 hPa | 0 mm | - | 359 W/m² | - |
| 1777832103 | 12.78° C | 30% | 1008.6 hPa | 0 mm | - | 320 W/m² | - |
| 1777831804 | 12.22° C | 30% | 1008.9 hPa | 0 mm | - | 647 W/m² | - |
| 1777831503 | 12.78° C | 30% | 1008.6 hPa | 0 mm | - | 270 W/m² | - |
| 1777831203 | 13.33° C | 31% | 1008.9 hPa | 0 mm | - | 253 W/m² | - |
| 1777830903 | 12.22° C | 32% | 1008.6 hPa | 0 mm | - | 410 W/m² | - |
| 1777830603 | 12.78° C | 32% | 1008.9 hPa | 0 mm | - | 323 W/m² | - |
| 1777830303 | 12.22° C | 32% | 1008.9 hPa | 0 mm | - | 575 W/m² | - |
| 1777830003 | 12.22° C | 33% | 1008.9 hPa | 0 mm | - | 370 W/m² | - |
* Rain latest hour (hover to see other rain measurements)
** Current wind speed in m/s (hover to see current wind gust speed)